createdAt,value
2019-04-07T00:04:23.726Z,91.05
2019-04-07T00:09:26.818Z,91.69
2019-04-07T00:14:30.037Z,90.88
2019-04-07T00:19:33.122Z,91.74
2019-04-07T00:24:36.521Z,92.25
2019-04-07T00:29:39.842Z,93.40
2019-04-07T00:34:43.081Z,93.70
2019-04-07T00:39:46.620Z,93.07
2019-04-07T00:44:49.791Z,93.64
2019-04-07T00:49:52.858Z,94.16
2019-04-07T00:54:56.175Z,94.48
2019-04-07T00:59:59.471Z,94.05
2019-04-07T01:05:02.923Z,94.22
2019-04-07T01:10:06.698Z,94.66
2019-04-07T01:15:10.896Z,94.63
2019-04-07T01:20:14.311Z,94.28
2019-04-07T01:25:17.819Z,93.11
2019-04-07T01:30:21.420Z,93.51
2019-04-07T01:35:24.634Z,94.63
2019-04-07T01:40:27.713Z,94.58
2019-04-07T01:46:03.026Z,93.70
2019-04-07T01:51:16.863Z,92.88
2019-04-07T01:56:34.688Z,92.58
2019-04-07T02:01:56.285Z,92.37
2019-04-07T02:07:22.231Z,91.39
2019-04-07T02:12:37.621Z,91.08
2019-04-07T02:18:09.634Z,92.02
2019-04-07T02:23:26.569Z,92.27
2019-04-07T02:28:49.575Z,92.09
2019-04-07T02:34:13.497Z,92.41
2019-04-07T02:39:34.882Z,92.74
2019-04-07T02:44:57.367Z,93.29
2019-04-07T02:50:26.259Z,92.09
2019-04-07T02:55:38.510Z,91.16
2019-04-07T03:00:52.310Z,91.81
2019-04-07T03:06:37.278Z,93.09
2019-04-07T03:11:49.094Z,93.82
2019-04-07T03:17:06.786Z,94.47
2019-04-07T03:22:29.353Z,93.95
2019-04-07T03:27:55.053Z,92.76
2019-04-07T03:33:15.675Z,92.09
2019-04-07T03:38:36.733Z,90.67
2019-04-07T03:43:52.771Z,91.23
2019-04-07T03:49:18.751Z,90.53
2019-04-07T03:54:39.992Z,90.38
2019-04-07T04:00:08.560Z,91.09
2019-04-07T04:05:34.168Z,91.12
2019-04-07T04:10:46.726Z,90.66
2019-04-07T04:15:56.660Z,89.84
2019-04-07T04:20:59.874Z,91.23
2019-04-07T04:26:03.169Z,91.80
2019-04-07T04:31:06.760Z,91.33
2019-04-07T04:36:09.886Z,90.50
2019-04-07T04:41:13.204Z,90.03
2019-04-07T04:46:17.036Z,89.94
2019-04-07T04:51:20.303Z,89.12
2019-04-07T04:56:24.091Z,89.37
2019-04-07T05:01:27.599Z,90.18
2019-04-07T05:06:31.211Z,90.32
2019-04-07T05:11:34.469Z,90.14
2019-04-07T05:16:37.779Z,90.70
2019-04-07T05:21:41.517Z,90.99
2019-04-07T05:26:45.551Z,91.42
2019-04-07T05:31:49.186Z,91.49
2019-04-07T05:36:52.378Z,91.26
2019-04-07T05:41:55.477Z,90.88
2019-04-07T05:46:58.548Z,90.30
2019-04-07T05:52:04.589Z,89.42
2019-04-07T05:57:06.522Z,89.30
2019-04-07T06:02:09.787Z,89.09
2019-04-07T06:07:13.777Z,90.42
2019-04-07T06:12:17.280Z,91.78
2019-04-07T06:17:21.041Z,91.73
2019-04-07T06:22:24.781Z,92.10
2019-04-07T06:27:29.766Z,92.17
2019-04-07T06:32:36.108Z,91.79
2019-04-07T06:37:38.646Z,91.25
2019-04-07T06:42:43.996Z,91.97
2019-04-07T06:47:50.781Z,91.87
2019-04-07T06:53:20.710Z,91.56
2019-04-07T06:58:46.688Z,89.66
2019-04-07T07:04:10.870Z,89.51
2019-04-07T07:09:30.733Z,90.12
2019-04-07T07:14:56.154Z,88.16
2019-04-07T07:20:06.492Z,87.52
2019-04-07T07:25:11.906Z,88.16
2019-04-07T07:30:19.038Z,87.33
2019-04-07T07:35:20.548Z,85.93
2019-04-07T07:40:24.185Z,85.77
2019-04-07T07:45:27.401Z,87.39
2019-04-07T07:50:30.562Z,86.75
2019-04-07T07:55:35.916Z,86.89
2019-04-07T08:00:41.385Z,87.91
2019-04-07T08:05:43.451Z,87.48
2019-04-07T08:10:47.351Z,87.88
2019-04-07T08:15:50.436Z,88.52
2019-04-07T08:20:53.373Z,88.25
2019-04-07T08:25:57.853Z,87.53
2019-04-07T08:31:01.878Z,87.92
2019-04-07T08:36:09.687Z,87.27
2019-04-07T08:41:12.501Z,87.11
2019-04-07T08:46:16.426Z,87.31
2019-04-07T08:51:19.937Z,86.89
2019-04-07T08:56:26.255Z,85.92
2019-04-07T09:01:29.584Z,85.52
2019-04-07T09:06:33.442Z,84.44
2019-04-07T09:11:39.930Z,84.62
2019-04-07T09:16:59.784Z,84.60
2019-04-07T09:22:23.242Z,83.60
2019-04-07T09:27:42.140Z,83.98
2019-04-07T09:33:23.244Z,83.30
2019-04-07T09:38:27.435Z,82.34
2019-04-07T09:44:03.143Z,80.62
2019-04-07T09:49:26.124Z,79.17
2019-04-07T09:54:53.702Z,79.10
2019-04-07T10:00:03.696Z,76.48
2019-04-07T10:05:40.446Z,76.81
2019-04-07T10:11:00.739Z,75.83
2019-04-07T10:16:22.332Z,73.97
2019-04-07T10:22:03.588Z,71.75
2019-04-07T10:27:32.917Z,73.09
2019-04-07T10:32:58.567Z,73.77
2019-04-07T10:38:33.945Z,73.06
2019-04-07T10:43:56.581Z,71.26
2019-04-07T10:49:27.978Z,68.99
2019-04-07T10:54:39.248Z,69.31
2019-04-07T10:59:47.578Z,66.57
2019-04-07T11:05:08.420Z,66.48
2019-04-07T11:10:39.376Z,67.13
2019-04-07T11:16:11.539Z,66.64
2019-04-07T11:21:32.791Z,67.42
2019-04-07T11:26:58.148Z,65.35
2019-04-07T11:32:08.651Z,66.40
2019-04-07T11:37:18.912Z,62.94
2019-04-07T11:42:33.331Z,69.77
2019-04-07T11:47:49.212Z,69.25
2019-04-07T11:53:21.212Z,68.00
2019-04-07T11:58:47.604Z,66.34
2019-04-07T12:04:09.670Z,66.06
2019-04-07T12:09:31.841Z,63.81
2019-04-07T12:15:00.834Z,64.26
2019-04-07T12:20:25.697Z,63.05
2019-04-07T12:26:04.258Z,63.50
2019-04-07T12:31:33.695Z,63.05
2019-04-07T12:37:03.054Z,61.70
2019-04-07T12:42:19.267Z,59.71
2019-04-07T12:47:41.120Z,58.84
2019-04-07T12:53:13.513Z,59.29
2019-04-07T12:58:36.881Z,60.20
2019-04-07T13:04:05.700Z,59.43
2019-04-07T13:09:27.871Z,59.50
2019-04-07T13:14:40.979Z,56.83
2019-04-07T13:20:07.326Z,58.86
2019-04-07T13:25:31.285Z,55.61
2019-04-07T13:31:03.543Z,55.88
2019-04-07T13:36:25.408Z,56.31
2019-04-07T13:41:57.833Z,55.14
2019-04-07T13:47:30.120Z,59.33
2019-04-07T13:52:52.804Z,58.20
2019-04-07T13:58:02.595Z,57.75
2019-04-07T14:03:12.408Z,58.50
2019-04-07T14:08:27.143Z,55.70
2019-04-07T14:13:57.710Z,57.03
2019-04-07T14:19:24.235Z,56.01
2019-04-07T14:24:39.509Z,57.35
2019-04-07T14:30:11.455Z,54.70
2019-04-07T14:35:37.011Z,56.20
2019-04-07T14:40:54.824Z,56.30
2019-04-07T14:46:19.544Z,57.70
2019-04-07T14:51:42.726Z,56.59
2019-04-07T14:56:58.629Z,56.86
2019-04-07T15:02:02.733Z,55.92
2019-04-07T15:07:26.383Z,56.89
2019-04-07T15:12:36.795Z,56.57
2019-04-07T15:17:40.464Z,57.26
2019-04-07T15:22:45.877Z,56.75
2019-04-07T15:27:48.917Z,55.63
2019-04-07T15:32:52.027Z,53.85
2019-04-07T15:37:55.410Z,53.01
2019-04-07T15:43:01.424Z,53.60
2019-04-07T15:48:04.003Z,53.63
2019-04-07T15:53:07.290Z,53.11
2019-04-07T15:58:10.782Z,54.09
2019-04-07T16:03:15.741Z,54.76
2019-04-07T16:08:18.780Z,53.94
2019-04-07T16:13:21.780Z,54.94
2019-04-07T16:18:25.267Z,55.03
2019-04-07T16:23:29.408Z,53.91
2019-04-07T16:28:33.098Z,54.56
2019-04-07T16:33:37.156Z,55.00
2019-04-07T16:38:40.693Z,55.92
2019-04-07T16:43:43.924Z,56.47
2019-04-07T16:48:46.924Z,57.89
2019-04-07T16:53:49.967Z,58.19
2019-04-07T16:58:53.508Z,58.75
2019-04-07T17:03:59.240Z,56.70
2019-04-07T17:09:08.962Z,57.74
2019-04-07T17:14:12.127Z,57.42
2019-04-07T17:19:15.387Z,58.18
2019-04-07T17:24:19.661Z,58.88
2019-04-07T17:29:23.523Z,59.71
2019-04-07T17:34:26.949Z,62.12
2019-04-07T17:39:48.248Z,63.32
2019-04-07T17:45:24.718Z,64.39
2019-04-07T17:50:49.776Z,66.32
2019-04-07T17:56:10.784Z,66.86
2019-04-07T18:01:33.589Z,66.30
2019-04-07T18:06:57.144Z,69.12
2019-04-07T18:12:19.915Z,70.63
2019-04-07T18:17:46.000Z,70.52
2019-04-07T18:23:05.855Z,70.76
2019-04-07T18:28:26.077Z,71.84
2019-04-07T18:33:50.749Z,72.91
2019-04-07T18:39:28.483Z,73.00
2019-04-07T18:44:42.360Z,74.50
2019-04-07T18:50:03.954Z,74.88
2019-04-07T18:55:27.321Z,75.25
2019-04-07T19:00:45.507Z,75.34
2019-04-07T19:06:14.817Z,75.96
2019-04-07T19:11:29.733Z,77.37
2019-04-07T19:16:52.704Z,78.00
2019-04-07T19:22:18.027Z,77.89
2019-04-07T19:27:38.963Z,79.76
2019-04-07T19:33:02.397Z,80.59
2019-04-07T19:38:28.179Z,80.86
2019-04-07T19:43:52.800Z,80.75
2019-04-07T19:49:22.872Z,83.13
2019-04-07T19:54:49.487Z,83.44
2019-04-07T20:00:21.915Z,84.93
2019-04-07T20:05:48.770Z,85.31
2019-04-07T20:11:03.945Z,85.87
2019-04-07T20:16:26.899Z,87.34
2019-04-07T20:21:55.817Z,88.36
2019-04-07T20:27:22.656Z,88.08
2019-04-07T20:32:34.797Z,87.17
2019-04-07T20:38:01.932Z,86.52
2019-04-07T20:43:10.182Z,87.12
2019-04-07T20:48:34.933Z,87.96
2019-04-07T20:54:11.180Z,88.73
2019-04-07T20:59:45.713Z,89.22
2019-04-07T21:04:57.156Z,90.74
2019-04-07T21:10:23.205Z,89.19
2019-04-07T21:15:48.645Z,89.71
2019-04-07T21:21:11.650Z,91.03
2019-04-07T21:26:29.805Z,90.65
2019-04-07T21:32:08.538Z,91.34
2019-04-07T21:37:30.504Z,91.79
2019-04-07T21:42:59.462Z,90.88
2019-04-07T21:48:25.637Z,92.01
2019-04-07T21:53:48.614Z,91.80
2019-04-07T21:59:01.213Z,91.39
2019-04-07T22:04:09.226Z,92.62
2019-04-07T22:09:51.268Z,92.80
2019-04-07T22:14:54.905Z,93.22
2019-04-07T22:19:58.506Z,93.73
2019-04-07T22:25:06.110Z,93.51
2019-04-07T22:30:09.178Z,93.87
2019-04-07T22:35:12.704Z,94.19
2019-04-07T22:40:19.402Z,92.61
2019-04-07T22:45:27.778Z,93.12
2019-04-07T22:50:28.407Z,93.05
2019-04-07T22:55:34.272Z,91.43
2019-04-07T23:00:37.119Z,92.61
2019-04-07T23:05:41.602Z,93.90
2019-04-07T23:10:44.688Z,94.00
2019-04-07T23:15:48.511Z,94.05
2019-04-07T23:20:51.721Z,94.25
2019-04-07T23:25:55.611Z,94.36
2019-04-07T23:30:59.064Z,93.57
2019-04-07T23:36:03.787Z,93.71
2019-04-07T23:41:06.918Z,93.51
2019-04-07T23:46:20.637Z,93.04
2019-04-07T23:51:15.189Z,92.33
2019-04-07T23:56:18.158Z,91.24
